Time,TemperatureF,DewpointF,PressureIn,WindDirection,WindDirectionDegrees,WindSpeedMPH,WindSpeedGustMPH,Humidity,HourlyPrecipIn,Conditions,Clouds,dailyrainin,SoftwareType,DateUTC
2013-08-03 00:02:00,61.0,59.0,29.85,WSW,250,0.0,0.0,94,0.00,,,0.15,,2013-08-03 04:02:00,
2013-08-03 00:43:00,60.0,59.0,29.86,WSW,250,0.0,0.0,95,0.00,,,0.15,,2013-08-03 04:43:00,
2013-08-03 00:53:00,60.0,59.0,29.86,WSW,250,0.0,0.0,95,0.00,,,0.15,,2013-08-03 04:53:00,
2013-08-03 01:32:00,59.0,58.0,29.87,WSW,250,0.0,0.0,95,0.00,,,0.15,,2013-08-03 05:32:00,
2013-08-03 01:42:00,59.0,58.0,29.87,WSW,250,0.0,0.0,95,0.00,,,0.15,,2013-08-03 05:42:00,
2013-08-03 02:02:00,59.0,58.0,29.87,WSW,250,0.0,0.0,95,0.00,,,0.15,,2013-08-03 06:02:00,
2013-08-03 02:12:00,59.0,58.0,29.87,WSW,250,0.0,0.0,95,0.00,,,0.15,,2013-08-03 06:12:00,
2013-08-03 02:23:00,59.0,58.0,29.88,WSW,250,0.0,0.0,95,0.00,,,0.15,,2013-08-03 06:23:00,
2013-08-03 02:33:00,59.0,58.0,29.88,WSW,250,0.0,0.0,95,0.00,,,0.15,,2013-08-03 06:33:00,
2013-08-03 02:42:00,59.0,58.0,29.88,WSW,250,0.0,0.0,95,0.00,,,0.15,,2013-08-03 06:42:00,
2013-08-03 02:52:00,58.0,57.0,29.88,WSW,250,0.0,0.0,95,0.00,,,0.15,,2013-08-03 06:52:00,
2013-08-03 03:02:00,58.0,57.0,29.88,WSW,250,0.0,0.0,95,0.00,,,0.15,,2013-08-03 07:02:00,
2013-08-03 03:12:00,58.0,57.0,29.89,WSW,250,0.0,0.0,95,0.00,,,0.15,,2013-08-03 07:12:00,
2013-08-03 03:22:00,57.0,56.0,29.89,WSW,250,0.0,0.0,95,0.00,,,0.15,,2013-08-03 07:22:00,
2013-08-03 03:32:00,57.0,56.0,29.89,WSW,250,0.0,0.0,95,0.00,,,0.15,,2013-08-03 07:32:00,
2013-08-03 03:43:00,57.0,56.0,29.89,WSW,250,0.0,0.0,95,0.00,,,0.15,,2013-08-03 07:43:00,
2013-08-03 03:52:00,57.0,56.0,29.89,WSW,250,0.0,0.0,95,0.00,,,0.15,,2013-08-03 07:52:00,
2013-08-03 04:02:00,56.0,55.0,29.89,WSW,250,0.0,0.0,95,0.00,,,0.15,,2013-08-03 08:02:00,
2013-08-03 04:22:00,56.0,55.0,29.90,WSW,250,0.0,0.0,96,0.00,,,0.15,,2013-08-03 08:22:00,
2013-08-03 04:32:00,56.0,55.0,29.90,WSW,250,0.0,0.0,96,0.00,,,0.15,,2013-08-03 08:32:00,
2013-08-03 04:43:00,56.0,55.0,29.89,WSW,250,0.0,0.0,95,0.00,,,0.15,,2013-08-03 08:43:00,
2013-08-03 04:52:00,56.0,55.0,29.90,WSW,250,0.0,0.0,95,0.00,,,0.15,,2013-08-03 08:52:00,
2013-08-03 05:02:00,55.0,54.0,29.90,WSW,250,0.0,0.0,96,0.00,,,0.15,,2013-08-03 09:02:00,
2013-08-03 05:12:00,55.0,54.0,29.90,WSW,250,0.0,0.0,96,0.00,,,0.15,,2013-08-03 09:12:00,
2013-08-03 05:22:00,55.0,54.0,29.90,WSW,250,0.0,0.0,96,0.00,,,0.15,,2013-08-03 09:22:00,
2013-08-03 05:32:00,55.0,54.0,29.90,WSW,250,0.0,0.0,96,0.00,,,0.15,,2013-08-03 09:32:00,
2013-08-03 05:43:00,55.0,54.0,29.91,WSW,250,0.0,0.0,96,0.00,,,0.15,,2013-08-03 09:43:00,
2013-08-03 05:53:00,55.0,54.0,29.91,WSW,250,0.0,0.0,96,0.01,,,0.16,,2013-08-03 09:53:00,
2013-08-03 06:02:00,54.0,53.0,29.91,WSW,250,0.0,0.0,96,0.01,,,0.16,,2013-08-03 10:02:00,
2013-08-03 06:12:00,54.0,53.0,29.91,WSW,250,0.0,0.0,96,0.01,,,0.16,,2013-08-03 10:12:00,
2013-08-03 06:32:00,54.0,53.0,29.92,WSW,250,0.0,0.0,96,0.01,,,0.16,,2013-08-03 10:32:00,
2013-08-03 06:42:00,54.0,53.0,29.92,WSW,250,0.0,0.0,96,0.01,,,0.16,,2013-08-03 10:42:00,
2013-08-03 06:53:00,54.0,53.0,29.92,WSW,250,0.0,0.0,96,0.01,,,0.16,,2013-08-03 10:53:00,
2013-08-03 07:02:00,54.0,53.0,29.91,WSW,250,0.0,0.0,96,0.00,,,0.16,,2013-08-03 11:02:00,
2013-08-03 07:22:00,54.0,53.0,29.92,WSW,250,0.0,0.0,96,0.00,,,0.16,,2013-08-03 11:22:00,
2013-08-03 07:32:00,54.0,53.0,29.92,WSW,250,0.0,0.0,96,0.00,,,0.16,,2013-08-03 11:32:00,
2013-08-03 07:43:00,55.0,54.0,29.92,WSW,250,0.0,0.0,96,0.00,,,0.16,,2013-08-03 11:43:00,
2013-08-03 07:53:00,56.0,55.0,29.92,WSW,250,0.0,0.0,96,0.00,,,0.16,,2013-08-03 11:53:00,
2013-08-03 08:33:00,58.0,57.0,29.93,WSW,250,0.0,0.0,97,0.00,,,0.16,,2013-08-03 12:33:00,
2013-08-03 08:52:00,59.0,58.0,29.93,WSW,250,0.0,0.0,97,0.00,,,0.16,,2013-08-03 12:52:00,
2013-08-03 09:02:00,59.0,58.0,29.93,WSW,250,0.0,0.0,97,0.00,,,0.16,,2013-08-03 13:02:00,
2013-08-03 09:12:00,60.0,59.0,29.93,WSW,250,0.0,0.0,97,0.00,,,0.16,,2013-08-03 13:12:00,
2013-08-03 09:52:00,63.0,62.0,29.94,WSW,250,0.0,0.0,95,0.00,,,0.16,,2013-08-03 13:52:00,
2013-08-03 10:02:00,64.0,61.0,29.94,WSW,250,1.0,2.0,89,0.00,,,0.16,,2013-08-03 14:02:00,
2013-08-03 10:13:00,65.0,61.0,29.94,WSW,250,0.0,3.0,87,0.00,,,0.16,,2013-08-03 14:13:00,
2013-08-03 10:22:00,66.0,61.0,29.94,WSW,250,0.0,0.0,83,0.00,,,0.16,,2013-08-03 14:22:00,
2013-08-03 10:33:00,68.0,62.0,29.94,ENE,61,0.0,0.0,80,0.00,,,0.16,,2013-08-03 14:33:00,
2013-08-03 10:42:00,68.0,59.0,29.94,ENE,59,0.0,3.0,74,0.00,,,0.16,,2013-08-03 14:42:00,
2013-08-03 10:52:00,69.0,60.0,29.94,NE,44,0.0,3.0,73,0.00,,,0.16,,2013-08-03 14:52:00,
2013-08-03 11:02:00,70.0,61.0,29.94,SW,231,0.0,1.0,72,0.00,,,0.16,,2013-08-03 15:02:00,
2013-08-03 11:12:00,70.0,60.0,29.94,WSW,244,1.0,3.0,70,0.00,,,0.16,,2013-08-03 15:12:00,
2013-08-03 11:23:00,70.0,60.0,29.94,WSW,244,1.0,3.0,70,0.00,,,0.16,,2013-08-03 15:23:00,
2013-08-03 11:32:00,71.0,59.0,29.94,ENE,59,0.0,2.0,66,0.00,,,0.16,,2013-08-03 15:32:00,
2013-08-03 11:43:00,71.0,59.0,29.94,WSW,238,2.0,4.0,67,0.00,,,0.16,,2013-08-03 15:43:00,
2013-08-03 11:53:00,72.0,60.0,29.94,South,191,4.0,5.0,67,0.00,,,0.16,,2013-08-03 15:53:00,
2013-08-03 12:02:00,73.0,61.0,29.94,East,97,0.0,2.0,65,0.00,,,0.16,,2013-08-03 16:02:00,
2013-08-03 12:12:00,74.0,61.0,29.94,ESE,110,0.0,2.0,64,0.00,,,0.16,,2013-08-03 16:12:00,
2013-08-03 12:22:00,73.0,60.0,29.94,South,175,0.0,0.0,63,0.00,,,0.16,,2013-08-03 16:22:00,
2013-08-03 12:33:00,73.0,60.0,29.94,West,269,1.0,4.0,63,0.00,,,0.16,,2013-08-03 16:33:00,
2013-08-03 12:43:00,73.0,58.0,29.93,WSW,245,0.0,2.0,60,0.00,,,0.16,,2013-08-03 16:43:00,
2013-08-03 12:53:00,73.0,58.0,29.93,WSW,245,0.0,2.0,60,0.00,,,0.16,,2013-08-03 16:53:00,
2013-08-03 13:03:00,74.0,58.0,29.94,NW,308,0.0,4.0,58,0.00,,,0.16,,2013-08-03 17:03:00,
2013-08-03 13:12:00,73.0,58.0,29.94,SW,222,4.0,4.0,59,0.00,,,0.16,,2013-08-03 17:12:00,
2013-08-03 13:22:00,73.0,59.0,29.94,East,89,0.0,7.0,61,0.00,,,0.16,,2013-08-03 17:22:00,
2013-08-03 13:32:00,74.0,56.0,29.94,South,183,0.0,7.0,54,0.00,,,0.16,,2013-08-03 17:32:00,
2013-08-03 13:43:00,74.0,59.0,29.94,SSE,155,0.0,0.0,60,0.00,,,0.16,,2013-08-03 17:43:00,
2013-08-03 13:52:00,74.0,59.0,29.94,WSW,247,0.0,3.0,60,0.00,,,0.16,,2013-08-03 17:52:00,
2013-08-03 14:02:00,74.0,59.0,29.94,WNW,292,1.0,4.0,59,0.00,,,0.16,,2013-08-03 18:02:00,
2013-08-03 14:12:00,74.0,60.0,29.94,West,273,2.0,3.0,62,0.00,,,0.16,,2013-08-03 18:12:00,
2013-08-03 14:22:00,75.0,59.0,29.94,West,261,2.0,5.0,57,0.00,,,0.16,,2013-08-03 18:22:00,
2013-08-03 14:32:00,75.0,58.0,29.94,WSW,257,5.0,5.0,55,0.00,,,0.16,,2013-08-03 18:32:00,
2013-08-03 14:43:00,75.0,58.0,29.94,SW,235,1.0,9.0,56,0.00,,,0.16,,2013-08-03 18:43:00,
2013-08-03 14:53:00,75.0,58.0,29.94,SW,235,1.0,9.0,56,0.00,,,0.16,,2013-08-03 18:53:00,
2013-08-03 15:03:00,76.0,60.0,29.94,North,0,0.0,4.0,57,0.00,,,0.16,,2013-08-03 19:03:00,
2013-08-03 15:12:00,76.0,60.0,29.94,North,0,0.0,4.0,57,0.00,,,0.16,,2013-08-03 19:12:00,
2013-08-03 15:22:00,76.0,59.0,29.94,NNE,28,1.0,7.0,55,0.00,,,0.16,,2013-08-03 19:22:00,
2013-08-03 15:32:00,76.0,58.0,29.93,WSW,254,3.0,4.0,54,0.00,,,0.16,,2013-08-03 19:32:00,
2013-08-03 15:43:00,76.0,59.0,29.94,WNW,286,1.0,5.0,55,0.00,,,0.16,,2013-08-03 19:43:00,
2013-08-03 15:52:00,76.0,59.0,29.94,WNW,286,1.0,5.0,55,0.00,,,0.16,,2013-08-03 19:52:00,
2013-08-03 16:02:00,76.0,59.0,29.94,WNW,286,1.0,5.0,55,0.00,,,0.16,,2013-08-03 20:02:00,
2013-08-03 16:12:00,76.0,59.0,29.94,ENE,78,2.0,4.0,55,0.00,,,0.16,,2013-08-03 20:12:00,
2013-08-03 16:22:00,76.0,59.0,29.94,ENE,78,2.0,4.0,55,0.00,,,0.16,,2013-08-03 20:22:00,
2013-08-03 16:32:00,76.0,58.0,29.95,WSW,249,0.0,5.0,53,0.00,,,0.16,,2013-08-03 20:32:00,
2013-08-03 16:42:00,75.0,58.0,29.94,SW,223,1.0,1.0,56,0.00,,,0.16,,2013-08-03 20:42:00,
2013-08-03 16:52:00,76.0,59.0,29.94,SSW,194,2.0,2.0,56,0.00,,,0.16,,2013-08-03 20:52:00,
2013-08-03 17:02:00,76.0,58.0,29.95,SW,235,0.0,4.0,54,0.00,,,0.16,,2013-08-03 21:02:00,
2013-08-03 17:12:00,76.0,59.0,29.95,ESE,114,0.0,5.0,56,0.00,,,0.16,,2013-08-03 21:12:00,
2013-08-03 17:22:00,76.0,59.0,29.95,ESE,114,0.0,5.0,56,0.00,,,0.16,,2013-08-03 21:22:00,
2013-08-03 17:32:00,76.0,60.0,29.95,South,175,0.0,3.0,57,0.00,,,0.16,,2013-08-03 21:32:00,
2013-08-03 17:42:00,77.0,60.0,29.95,SSW,203,2.0,4.0,55,0.00,,,0.16,,2013-08-03 21:42:00,
2013-08-03 17:52:00,77.0,60.0,29.95,SSW,203,2.0,4.0,55,0.00,,,0.16,,2013-08-03 21:52:00,
2013-08-03 18:02:00,75.0,59.0,29.96,NE,52,0.0,4.0,58,0.00,,,0.16,,2013-08-03 22:02:00,
2013-08-03 18:12:00,75.0,59.0,29.96,ENE,59,1.0,2.0,57,0.00,,,0.16,,2013-08-03 22:12:00,
2013-08-03 18:22:00,74.0,59.0,29.96,North,0,0.0,4.0,59,0.00,,,0.16,,2013-08-03 22:22:00,
2013-08-03 18:33:00,74.0,58.0,29.96,North,9,2.0,4.0,58,0.00,,,0.16,,2013-08-03 22:33:00,
2013-08-03 18:43:00,74.0,59.0,29.96,ESE,116,0.0,6.0,59,0.00,,,0.16,,2013-08-03 22:43:00,
2013-08-03 18:52:00,73.0,58.0,29.96,SSE,163,1.0,5.0,59,0.00,,,0.16,,2013-08-03 22:52:00,
2013-08-03 19:02:00,72.0,57.0,29.96,SSE,150,0.0,5.0,59,0.00,,,0.16,,2013-08-03 23:02:00,
2013-08-03 19:12:00,72.0,58.0,29.96,NNE,21,3.0,5.0,62,0.00,,,0.16,,2013-08-03 23:12:00,
2013-08-03 19:22:00,72.0,59.0,29.96,East,83,0.0,4.0,63,0.00,,,0.16,,2013-08-03 23:22:00,
2013-08-03 19:32:00,71.0,57.0,29.97,North,355,1.0,3.0,61,0.00,,,0.16,,2013-08-03 23:32:00,
2013-08-03 19:43:00,71.0,57.0,29.97,ENE,71,0.0,4.0,62,0.00,,,0.14,,2013-08-03 23:43:00,
2013-08-03 19:52:00,71.0,57.0,29.97,ENE,71,0.0,4.0,62,0.00,,,0.14,,2013-08-03 23:52:00,
2013-08-03 20:03:00,69.0,56.0,29.98,NE,44,0.0,3.0,64,0.00,,,0.13,,2013-08-04 00:03:00,
2013-08-03 20:12:00,69.0,56.0,29.98,SE,146,2.0,5.0,64,0.00,,,0.09,,2013-08-04 00:12:00,
2013-08-03 20:22:00,69.0,57.0,29.98,ENE,61,0.0,1.0,65,0.00,,,0.01,,2013-08-04 00:22:00,
2013-08-03 20:32:00,69.0,57.0,29.98,ENE,61,0.0,0.0,66,0.00,,,0.01,,2013-08-04 00:32:00,
2013-08-03 20:42:00,69.0,57.0,29.98,ENE,61,0.0,0.0,66,0.00,,,0.01,,2013-08-04 00:42:00,
2013-08-03 20:52:00,69.0,57.0,29.98,ENE,61,0.0,0.0,66,0.00,,,0.01,,2013-08-04 00:52:00,
2013-08-03 21:02:00,67.0,56.0,29.98,ESE,110,0.0,0.0,67,0.00,,,0.01,,2013-08-04 01:02:00,
2013-08-03 21:12:00,66.0,56.0,29.98,ESE,105,0.0,0.0,69,0.00,,,0.01,,2013-08-04 01:12:00,
2013-08-03 21:22:00,66.0,56.0,29.98,ESE,105,0.0,0.0,71,0.00,,,0.01,,2013-08-04 01:22:00,
2013-08-03 21:32:00,66.0,56.0,29.98,ESE,105,0.0,0.0,71,0.00,,,0.01,,2013-08-04 01:32:00,
2013-08-03 21:42:00,66.0,56.0,29.98,ESE,105,0.0,0.0,71,0.00,,,0.01,,2013-08-04 01:42:00,
2013-08-03 21:52:00,66.0,56.0,29.98,ESE,105,0.0,0.0,71,0.00,,,0.01,,2013-08-04 01:52:00,
2013-08-03 22:03:00,61.0,55.0,30.00,ESE,105,0.0,0.0,82,0.00,,,0.01,,2013-08-04 02:03:00,
2013-08-03 22:12:00,61.0,56.0,30.00,ESE,105,0.0,0.0,83,0.00,,,0.01,,2013-08-04 02:12:00,
2013-08-03 22:22:00,61.0,56.0,30.00,ESE,105,0.0,0.0,83,0.00,,,0.01,,2013-08-04 02:22:00,
2013-08-03 22:32:00,60.0,55.0,30.00,ESE,105,0.0,0.0,84,0.00,,,0.01,,2013-08-04 02:32:00,
2013-08-03 22:42:00,60.0,55.0,30.00,ESE,105,0.0,0.0,84,0.00,,,0.01,,2013-08-04 02:42:00,
2013-08-03 22:52:00,58.0,54.0,30.01,ESE,105,0.0,0.0,88,0.00,,,0.01,,2013-08-04 02:52:00,
2013-08-03 23:02:00,58.0,54.0,30.01,ESE,105,0.0,0.0,88,0.00,,,0.01,,2013-08-04 03:02:00,
2013-08-03 23:12:00,58.0,55.0,30.02,ESE,105,0.0,0.0,89,0.00,,,0.01,,2013-08-04 03:12:00,
2013-08-03 23:22:00,58.0,55.0,30.02,ESE,105,0.0,0.0,89,0.00,,,0.01,,2013-08-04 03:22:00,
2013-08-03 23:32:00,58.0,55.0,30.02,ESE,105,0.0,0.0,90,0.00,,,0.01,,2013-08-04 03:32:00,
2013-08-03 23:42:00,58.0,55.0,30.02,ESE,105,0.0,0.0,90,0.00,,,0.01,,2013-08-04 03:42:00,
2013-08-03 23:52:00,58.0,55.0,30.03,ESE,105,0.0,0.0,91,0.00,,,0.01,,2013-08-04 03:52:00,